Time;durP1;ratioP1;P1;durP2;ratioP2;P2;SDS_P1;SDS_P2;PMS_P1;PMS_P2;Temp;Humidity;BMP_temperature;BMP_pressure;BME280_temperature;BME280_humidity;BME280_pressure;Samples;Min_cycle;Max_cycle;Signal;HPM_P1;HPM_P2
2022/04/17 00:00:23;;;;;;;4.40;3.15;;;3.80;99.90;;;;;;5046234;28;20088;-72
2022/04/17 00:02:49;;;;;;;3.85;2.67;;;3.70;99.90;;;;;;5049742;28;20051;-72
2022/04/17 00:05:14;;;;;;;3.80;2.85;;;3.80;99.90;;;;;;5044308;28;20435;-72
2022/04/17 00:07:40;;;;;;;4.30;2.67;;;3.60;99.90;;;;;;5048567;28;20029;-72
2022/04/17 00:10:09;;;;;;;3.47;2.75;;;3.60;99.90;;;;;;5035997;28;20099;-72
2022/04/17 00:12:35;;;;;;;2.95;2.38;;;3.60;99.90;;;;;;5047379;28;20053;-73
2022/04/17 00:15:03;;;;;;;2.80;2.55;;;3.60;99.90;;;;;;5031220;28;20068;-72
2022/04/17 00:17:29;;;;;;;3.33;2.60;;;3.60;99.90;;;;;;5046628;28;20032;-72
2022/04/17 00:19:54;;;;;;;3.55;2.40;;;3.40;99.90;;;;;;5030742;28;20022;-72
2022/04/17 00:22:20;;;;;;;3.83;2.92;;;3.40;99.90;;;;;;5053428;28;20496;-72
2022/04/17 00:24:45;;;;;;;4.25;2.78;;;3.40;99.90;;;;;;5030192;28;20017;-72
2022/04/17 00:27:11;;;;;;;2.95;2.58;;;3.40;99.90;;;;;;5052612;28;20039;-72
2022/04/17 00:29:36;;;;;;;3.10;2.63;;;3.60;99.90;;;;;;5048480;28;20026;-72
2022/04/17 00:32:03;;;;;;;4.03;3.00;;;3.50;99.90;;;;;;5033556;28;20026;-72
2022/04/17 00:34:30;;;;;;;3.60;3.13;;;3.30;99.90;;;;;;5015629;28;20069;-72
2022/04/17 00:37:00;;;;;;;4.72;3.35;;;3.30;99.90;;;;;;5045367;28;20536;-72
2022/04/17 00:39:26;;;;;;;4.03;3.22;;;3.10;99.90;;;;;;5035645;28;20029;-72
2022/04/17 00:41:53;;;;;;;3.75;3.10;;;3.10;99.90;;;;;;5035086;28;20021;-71
2022/04/17 00:44:19;;;;;;;5.50;3.30;;;3.10;99.90;;;;;;5053207;28;20023;-71
2022/04/17 00:46:45;;;;;;;4.93;3.40;;;3.30;99.90;;;;;;5053331;28;20029;-72
2022/04/17 00:49:11;;;;;;;5.90;3.40;;;3.30;99.90;;;;;;5053278;28;20043;-72
2022/04/17 00:51:37;;;;;;;5.15;3.50;;;3.50;99.90;;;;;;5039781;28;20051;-71
2022/04/17 00:54:04;;;;;;;4.90;3.58;;;3.50;99.90;;;;;;5015460;28;20030;-72
2022/04/17 00:56:31;;;;;;;5.20;3.90;;;3.70;99.90;;;;;;5038332;28;20057;-72
2022/04/17 00:58:57;;;;;;;4.57;3.50;;;3.40;99.90;;;;;;5033395;28;20100;-72
2022/04/17 01:01:22;;;;;;;5.32;3.90;;;3.30;99.90;;;;;;5015197;28;20452;-72
2022/04/17 01:03:49;;;;;;;4.22;3.65;;;3.20;99.90;;;;;;5033507;28;20538;-72
2022/04/17 01:06:15;;;;;;;5.45;3.40;;;2.90;99.90;;;;;;5032868;28;20109;-72
2022/04/17 01:08:41;;;;;;;4.30;3.70;;;2.90;99.90;;;;;;5033006;28;20100;-71
2022/04/17 01:11:08;;;;;;;5.38;4.07;;;2.80;99.90;;;;;;5032544;28;20076;-72
2022/04/17 01:13:34;;;;;;;3.90;3.50;;;2.70;99.90;;;;;;5014941;28;20021;-73
2022/04/17 01:16:05;;;;;;;3.85;3.25;;;2.80;99.90;;;;;;5015040;28;20112;-73
2022/04/17 01:18:50;;;;;;;4.22;3.35;;;2.80;99.90;;;;;;5015044;28;20025;-71
2022/04/17 01:21:19;;;;;;;3.78;3.38;;;2.90;99.90;;;;;;5032475;28;20057;-73
2022/04/17 01:29:15;;;;;;;3.95;3.42;;;3.00;99.90;;;;;;5032711;28;20091;-72
2022/04/17 01:31:41;;;;;;;3.85;3.47;;;3.10;99.90;;;;;;5014631;28;20056;-72
2022/04/17 01:34:07;;;;;;;5.75;3.60;;;2.80;99.90;;;;;;5032345;28;20038;-71
2022/04/17 01:36:33;;;;;;;4.07;3.50;;;2.80;99.90;;;;;;5032402;28;20037;-71
2022/04/17 01:38:58;;;;;;;6.18;3.20;;;2.80;99.90;;;;;;5032488;28;20124;-72
2022/04/17 01:41:24;;;;;;;5.63;3.88;;;2.70;99.90;;;;;;5014701;28;20026;-72
2022/04/17 01:43:49;;;;;;;4.00;3.60;;;2.60;99.90;;;;;;5032289;28;20079;-72
2022/04/17 01:46:15;;;;;;;4.80;3.67;;;2.50;99.90;;;;;;5032439;28;20406;-72
2022/04/17 01:48:41;;;;;;;4.00;3.60;;;2.40;99.90;;;;;;5016685;28;20479;-72
2022/04/17 01:51:07;;;;;;;3.60;3.30;;;2.30;99.90;;;;;;5042795;28;20021;-71
2022/04/17 01:53:32;;;;;;;5.15;3.22;;;2.20;99.90;;;;;;5032074;28;20554;-71
2022/04/17 01:56:01;;;;;;;4.55;3.50;;;2.30;99.90;;;;;;5033537;28;20022;-71
2022/04/17 01:58:26;;;;;;;3.70;3.40;;;2.20;99.90;;;;;;5018243;28;20041;-71
2022/04/17 02:00:52;;;;;;;4.50;3.00;;;2.20;99.90;;;;;;5014283;28;20018;-71
2022/04/17 02:03:17;;;;;;;4.35;3.80;;;2.20;99.90;;;;;;5031998;28;20041;-71
2022/04/17 02:05:43;;;;;;;4.30;3.75;;;2.40;99.90;;;;;;5032002;28;20110;-72
2022/04/17 02:08:08;;;;;;;5.35;3.90;;;2.40;99.90;;;;;;5032187;28;20273;-73
2022/04/17 02:10:34;;;;;;;4.97;3.55;;;2.40;99.90;;;;;;5031790;28;20029;-72
2022/04/17 02:13:00;;;;;;;5.28;4.05;;;2.60;99.90;;;;;;5014190;28;20021;-72
2022/04/17 02:15:26;;;;;;;4.68;3.58;;;2.60;99.90;;;;;;5023170;28;20017;-72
2022/04/17 02:17:52;;;;;;;4.93;3.63;;;2.40;99.90;;;;;;5033662;28;20029;-71
2022/04/17 02:20:18;;;;;;;5.07;3.60;;;2.50;99.90;;;;;;5051411;28;20132;-71
2022/04/17 02:22:45;;;;;;;4.05;3.40;;;2.30;99.90;;;;;;5066985;28;20461;-72
2022/04/17 02:25:10;;;;;;;6.43;4.03;;;2.00;99.90;;;;;;5066995;28;20025;-71
2022/04/17 02:27:36;;;;;;;4.55;3.63;;;1.90;99.90;;;;;;5033663;28;20445;-71
2022/04/17 02:30:05;;;;;;;4.68;3.47;;;2.00;99.90;;;;;;5051539;28;20391;-72
2022/04/17 02:32:30;;;;;;;4.10;3.55;;;2.00;99.90;;;;;;5033498;28;20120;-72
2022/04/17 02:34:56;;;;;;;4.03;3.70;;;2.00;99.90;;;;;;5066707;28;20115;-72
2022/04/17 02:37:21;;;;;;;6.88;3.80;;;2.00;99.90;;;;;;5049027;28;20029;-72
2022/04/17 02:39:47;;;;;;;4.82;3.60;;;1.90;99.90;;;;;;5013814;28;20022;-71
2022/04/17 02:42:13;;;;;;;5.53;3.90;;;2.10;99.90;;;;;;5031348;28;20045;-72
2022/04/17 02:44:38;;;;;;;6.82;4.07;;;2.10;99.90;;;;;;5013938;28;20479;-73
2022/04/17 02:49:48;;;;;;;5.82;3.67;;;2.20;99.90;;;;;;5043330;28;20055;-72
2022/04/17 02:52:14;;;;;;;4.93;3.78;;;2.20;99.90;;;;;;5032780;28;20515;-72
2022/04/17 02:54:40;;;;;;;4.82;3.40;;;2.10;99.90;;;;;;5031370;28;20475;-72
2022/04/17 02:57:05;;;;;;;4.20;3.30;;;2.10;99.90;;;;;;5036850;28;20040;-72
2022/04/17 02:59:31;;;;;;;5.35;3.60;;;2.10;99.90;;;;;;5031137;28;20032;-72
2022/04/17 03:07:24;;;;;;;5.80;3.67;;;2.30;99.90;;;;;;5031485;28;20068;-70
2022/04/17 03:09:50;;;;;;;4.28;3.53;;;2.00;99.90;;;;;;5013332;28;20041;-70
2022/04/17 03:12:15;;;;;;;4.72;3.55;;;1.90;99.90;;;;;;5031142;28;20475;-70
2022/04/17 03:14:41;;;;;;;4.57;3.28;;;1.80;99.90;;;;;;5031152;28;20549;-70
2022/04/17 03:17:06;;;;;;;3.83;3.17;;;1.90;99.90;;;;;;5040402;28;20025;-71
2022/04/17 03:19:32;;;;;;;4.10;3.40;;;2.20;99.90;;;;;;5050874;28;20029;-70
2022/04/17 03:21:57;;;;;;;5.68;3.30;;;2.00;99.90;;;;;;5051272;28;20025;-71
2022/04/17 03:24:23;;;;;;;3.72;3.42;;;1.80;99.90;;;;;;5033122;28;20017;-71
2022/04/17 03:26:49;;;;;;;3.25;2.95;;;1.80;99.90;;;;;;5051225;28;20037;-71
2022/04/17 03:29:14;;;;;;;5.70;3.65;;;1.90;99.90;;;;;;5066325;28;20033;-71
2022/04/17 03:31:40;;;;;;;3.67;3.35;;;1.90;99.90;;;;;;5066125;28;20021;-70
2022/04/17 03:34:08;;;;;;;5.03;3.30;;;1.90;99.90;;;;;;5051183;28;20371;-71
2022/04/17 03:36:35;;;;;;;3.95;3.42;;;1.90;99.90;;;;;;5032904;28;20032;-70
2022/04/17 03:39:00;;;;;;;10.95;9.95;;;1.80;99.90;;;;;;5050687;28;20490;-70
2022/04/17 03:41:26;;;;;;;5.10;3.88;;;1.80;99.90;;;;;;5050923;28;20029;-70
2022/04/17 03:43:51;;;;;;;5.00;3.63;;;1.80;99.90;;;;;;5066152;28;20028;-72
2022/04/17 03:46:17;;;;;;;5.03;3.63;;;1.80;99.90;;;;;;5050845;28;20040;-71
2022/04/17 03:48:42;;;;;;;4.13;3.72;;;1.80;99.90;;;;;;5050676;28;20199;-71
2022/04/17 03:51:07;;;;;;;4.85;3.85;;;1.80;99.90;;;;;;5026982;28;20026;-71
2022/04/17 03:53:33;;;;;;;3.70;3.20;;;1.70;99.90;;;;;;5034166;28;20479;-71
2022/04/17 03:55:58;;;;;;;3.88;3.08;;;1.70;99.90;;;;;;5035826;28;20064;-72
2022/04/17 03:58:24;;;;;;;5.00;3.85;;;1.80;99.90;;;;;;5038726;28;20450;-72
2022/04/17 04:00:50;;;;;;;3.42;3.13;;;1.50;99.90;;;;;;5034165;28;20021;-72
2022/04/17 04:03:16;;;;;;;3.47;3.00;;;1.40;99.90;;;;;;5034129;28;20017;-71
2022/04/17 04:05:41;;;;;;;4.90;3.60;;;1.50;99.90;;;;;;5016470;28;20025;-72
2022/04/17 04:08:08;;;;;;;4.75;3.80;;;1.60;99.90;;;;;;5034155;28;20399;-73
2022/04/17 04:10:35;;;;;;;4.55;3.83;;;1.50;99.90;;;;;;5016753;28;20450;-72
2022/04/17 04:13:01;;;;;;;4.93;4.30;;;1.60;99.90;;;;;;5016592;28;20457;-71
2022/04/17 04:15:27;;;;;;;6.38;4.00;;;1.60;99.90;;;;;;5034091;28;20108;-71
2022/04/17 04:17:53;;;;;;;6.03;3.97;;;1.60;99.90;;;;;;5015963;28;20116;-71
2022/04/17 04:20:19;;;;;;;4.10;3.70;;;1.70;99.90;;;;;;5033813;28;20017;-71
2022/04/17 04:22:44;;;;;;;5.00;3.83;;;1.50;99.90;;;;;;5033693;28;20537;-71
2022/04/17 04:25:10;;;;;;;5.55;4.05;;;1.50;99.90;;;;;;5015997;28;20021;-71
2022/04/17 04:30:19;;;;;;;4.63;4.13;;;1.40;99.90;;;;;;5033719;28;20040;-71
2022/04/17 04:32:56;;;;;;;5.03;3.92;;;1.10;99.90;;;;;;5033630;28;20033;-71
2022/04/17 04:35:22;;;;;;;6.57;3.72;;;1.00;99.90;;;;;;5033491;28;20103;-71
2022/04/17 04:37:48;;;;;;;4.22;3.67;;;1.10;99.90;;;;;;5015667;28;20029;-72
2022/04/17 04:40:14;;;;;;;4.88;3.92;;;1.10;99.90;;;;;;5033679;28;20017;-72
2022/04/17 04:42:40;;;;;;;4.25;3.85;;;1.10;99.90;;;;;;5040160;28;20108;-72
2022/04/17 04:47:50;;;;;;;5.00;3.55;;;1.20;99.90;;;;;;5042895;28;20098;-71
2022/04/17 04:50:16;;;;;;;4.57;3.55;;;1.40;99.90;;;;;;5050933;28;20487;-71
2022/04/17 04:52:42;;;;;;;4.43;3.70;;;1.40;99.90;;;;;;5042192;28;20105;-72
2022/04/17 04:55:07;;;;;;;3.72;3.42;;;1.40;99.90;;;;;;5056277;28;20151;-72
2022/04/17 04:57:36;;;;;;;6.13;3.95;;;1.40;99.90;;;;;;5053182;28;20479;-71
2022/04/17 05:00:07;;;;;;;6.28;3.78;;;1.60;99.90;;;;;;5035347;28;20032;-72
2022/04/17 05:02:34;;;;;;;4.95;3.95;;;1.50;99.90;;;;;;5042096;28;20410;-70
2022/04/17 05:04:59;;;;;;;4.00;3.50;;;1.50;99.90;;;;;;5033131;28;20030;-70
2022/04/17 05:07:25;;;;;;;4.07;3.67;;;1.40;99.90;;;;;;5043097;28;20116;-71
2022/04/17 05:09:51;;;;;;;4.88;3.63;;;1.30;99.90;;;;;;5036610;28;20455;-71
2022/04/17 05:12:16;;;;;;;4.63;3.60;;;1.50;99.90;;;;;;5032829;28;20034;-71
2022/04/17 05:14:44;;;;;;;3.75;3.40;;;1.70;99.90;;;;;;5015289;28;20017;-71
2022/04/17 05:17:09;;;;;;;4.68;3.72;;;1.70;99.90;;;;;;5032889;28;20021;-71
2022/04/17 05:19:35;;;;;;;4.60;3.75;;;1.80;99.90;;;;;;5015066;28;20117;-70
2022/04/17 05:22:02;;;;;;;4.07;3.50;;;1.80;99.90;;;;;;5032546;28;20088;-71
2022/04/17 05:24:28;;;;;;;4.72;3.72;;;1.90;99.90;;;;;;5036153;28;20466;-71
2022/04/17 05:26:54;;;;;;;5.75;3.97;;;1.90;99.90;;;;;;5052636;28;20025;-71
2022/04/17 05:29:19;;;;;;;4.00;3.70;;;2.00;99.90;;;;;;5052462;28;20536;-71
2022/04/17 05:31:47;;;;;;;4.80;3.95;;;2.10;99.90;;;;;;5034345;28;20025;-71
2022/04/17 05:34:12;;;;;;;3.92;3.50;;;2.00;99.90;;;;;;5035715;28;20029;-70
2022/04/17 05:36:38;;;;;;;5.70;4.10;;;2.10;99.90;;;;;;5014737;28;20036;-71
2022/04/17 05:39:05;;;;;;;4.90;3.92;;;2.20;99.90;;;;;;5032492;28;20048;-70
2022/04/17 05:41:32;;;;;;;4.32;3.92;;;2.40;99.90;;;;;;5041999;28;20025;-70
2022/04/17 05:43:58;;;;;;;5.85;4.03;;;2.40;99.90;;;;;;5052161;28;20025;-70
2022/04/17 05:46:26;;;;;;;5.38;4.00;;;2.30;99.90;;;;;;5067654;28;20032;-71
2022/04/17 05:48:52;;;;;;;5.05;4.28;;;1.90;99.90;;;;;;5052084;28;20013;-70
2022/04/17 05:51:17;;;;;;;4.85;4.35;;;2.10;99.90;;;;;;5023574;28;20021;-70
2022/04/17 05:53:43;;;;;;;4.60;4.13;;;2.10;99.90;;;;;;5036034;28;20051;-70
2022/04/17 05:56:09;;;;;;;5.43;4.35;;;2.20;99.90;;;;;;5041733;28;20025;-71
2022/04/17 05:58:34;;;;;;;6.00;4.35;;;2.30;99.90;;;;;;5045659;28;20030;-71
2022/04/17 06:01:02;;;;;;;7.00;5.63;;;2.20;99.90;;;;;;5042048;28;20104;-71
2022/04/17 06:03:28;;;;;;;5.30;4.75;;;2.60;99.90;;;;;;5048162;28;20100;-71
2022/04/17 06:05:53;;;;;;;7.80;4.78;;;2.60;99.90;;;;;;5032052;28;20017;-71
2022/04/17 06:08:19;;;;;;;6.10;5.10;;;2.60;99.90;;;;;;5049468;28;20037;-71
2022/04/17 06:10:44;;;;;;;6.28;4.82;;;2.80;99.90;;;;;;5051652;28;20391;-71
2022/04/17 06:13:10;;;;;;;6.90;4.88;;;2.90;99.90;;;;;;5047829;28;20068;-71
2022/04/17 06:15:36;;;;;;;5.57;4.72;;;3.10;99.90;;;;;;5023988;28;20032;-71
2022/04/17 06:18:01;;;;;;;7.10;4.35;;;3.30;99.90;;;;;;5037880;28;20025;-71
2022/04/17 06:20:27;;;;;;;3.90;3.30;;;3.40;99.90;;;;;;5041326;28;20028;-71
2022/04/17 06:22:53;;;;;;;4.18;3.78;;;3.40;99.90;;;;;;5034984;28;20096;-71
2022/04/17 06:25:18;;;;;;;4.93;3.90;;;3.60;99.90;;;;;;5051556;28;20035;-71
2022/04/17 06:27:47;;;;;;;7.75;3.90;;;3.80;99.90;;;;;;5034822;28;20065;-71
2022/04/17 06:30:20;;;;;;;5.32;4.07;;;3.90;99.90;;;;;;5050233;28;20021;-71
2022/04/17 06:32:45;;;;;;;5.47;4.03;;;4.00;99.90;;;;;;5054184;28;20029;-71
2022/04/17 06:35:13;;;;;;;6.35;4.22;;;4.20;99.90;;;;;;5053273;28;20631;-71
2022/04/17 06:37:59;;;;;;;5.85;4.07;;;4.30;99.90;;;;;;5043129;28;20078;-71
2022/04/17 06:40:33;;;;;;;4.55;3.92;;;4.50;99.90;;;;;;5032384;28;20118;-71
2022/04/17 06:43:05;;;;;;;4.70;3.65;;;4.50;99.90;;;;;;5042950;28;20064;-71
2022/04/17 06:45:33;;;;;;;5.25;4.00;;;4.70;99.90;;;;;;5047477;28;20462;-71
2022/04/17 06:48:20;;;;;;;5.80;4.60;;;4.70;99.90;;;;;;5041859;28;20029;-71
2022/04/17 06:50:48;;;;;;;5.18;3.95;;;4.90;99.90;;;;;;5044498;28;20052;-72
2022/04/17 06:53:14;;;;;;;5.18;4.25;;;5.10;99.90;;;;;;5044752;28;20040;-71
2022/04/17 06:55:40;;;;;;;4.75;3.70;;;5.30;99.90;;;;;;5020171;28;20548;-71
2022/04/17 06:58:07;;;;;;;4.32;3.60;;;5.30;99.90;;;;;;5037934;28;20033;-71
2022/04/17 07:00:33;;;;;;;4.05;3.42;;;5.40;99.90;;;;;;5038351;28;20024;-71
2022/04/17 07:02:58;;;;;;;4.35;3.30;;;5.50;99.90;;;;;;5037898;28;20022;-71
2022/04/17 07:05:25;;;;;;;3.72;3.35;;;5.60;99.90;;;;;;5051126;28;20501;-72
2022/04/17 07:07:58;;;;;;;6.40;3.78;;;5.70;99.90;;;;;;5037749;28;20491;-71
2022/04/17 07:10:24;;;;;;;4.60;3.83;;;5.90;99.90;;;;;;5043190;28;20030;-73
2022/04/17 07:12:51;;;;;;;4.28;3.60;;;6.00;99.90;;;;;;5027976;28;20075;-71
2022/04/17 07:15:17;;;;;;;3.90;3.50;;;6.10;99.90;;;;;;5025447;28;20032;-71
2022/04/17 07:17:44;;;;;;;5.22;3.60;;;6.10;99.90;;;;;;5044422;28;20025;-71
2022/04/17 07:20:10;;;;;;;4.85;3.90;;;6.20;99.90;;;;;;5021468;28;20374;-71
2022/04/17 07:22:37;;;;;;;4.93;3.83;;;6.50;99.90;;;;;;5051068;28;20032;-71
2022/04/17 07:25:05;;;;;;;4.78;3.50;;;6.60;99.90;;;;;;5052501;28;20057;-71
2022/04/17 07:27:42;;;;;;;7.00;3.80;;;6.70;99.90;;;;;;5034913;28;20025;-71
2022/04/17 07:30:09;;;;;;;4.28;3.65;;;6.70;99.90;;;;;;5033521;28;20021;-71
2022/04/17 07:32:34;;;;;;;4.43;3.40;;;6.90;99.90;;;;;;5063341;28;20036;-71
2022/04/17 07:35:00;;;;;;;6.63;3.90;;;6.90;99.90;;;;;;5071670;28;20037;-71
2022/04/17 07:37:26;;;;;;;3.75;3.35;;;7.20;99.90;;;;;;5027061;28;20483;-71
2022/04/17 07:39:52;;;;;;;3.50;3.17;;;7.30;99.90;;;;;;5054769;28;20029;-71
2022/04/17 07:42:19;;;;;;;4.38;2.95;;;7.30;99.90;;;;;;5038039;28;20566;-71
2022/04/17 07:44:45;;;;;;;4.13;3.28;;;7.50;99.90;;;;;;5043642;28;20070;-71
2022/04/17 07:47:10;;;;;;;5.47;3.30;;;7.50;99.90;;;;;;5060323;28;20028;-71
2022/04/17 07:49:36;;;;;;;4.55;3.00;;;7.60;99.90;;;;;;5065580;28;20021;-71
2022/04/17 07:52:02;;;;;;;5.38;2.72;;;7.70;99.90;;;;;;5056426;28;20394;-71
2022/04/17 07:54:27;;;;;;;5.13;3.08;;;7.80;99.90;;;;;;5066002;28;20025;-71
2022/04/17 07:56:53;;;;;;;3.17;2.80;;;7.90;99.90;;;;;;5056301;28;20021;-71
2022/04/17 07:59:18;;;;;;;3.70;2.70;;;8.00;99.90;;;;;;5046895;28;20055;-71
2022/04/17 08:01:46;;;;;;;3.47;2.90;;;8.10;99.90;;;;;;5054266;28;20029;-71
2022/04/17 08:04:11;;;;;;;4.25;3.40;;;8.10;99.90;;;;;;5044906;28;20013;-71
2022/04/17 08:06:37;;;;;;;4.45;3.30;;;8.20;99.90;;;;;;5029840;28;20491;-71
2022/04/17 08:09:02;;;;;;;3.78;3.20;;;8.30;99.90;;;;;;5034297;28;20025;-71
2022/04/17 08:11:29;;;;;;;5.13;3.20;;;8.40;99.90;;;;;;5034611;28;20108;-71
2022/04/17 08:13:55;;;;;;;5.57;3.38;;;8.40;99.90;;;;;;5048396;28;20018;-71
2022/04/17 08:16:21;;;;;;;4.72;3.75;;;8.60;99.90;;;;;;5036967;28;20044;-71
2022/04/17 08:18:46;;;;;;;4.43;3.30;;;8.70;99.90;;;;;;5053959;28;20036;-71
2022/04/17 08:21:12;;;;;;;4.93;3.38;;;8.60;99.90;;;;;;5037732;28;20127;-72
2022/04/17 08:23:38;;;;;;;3.75;3.35;;;8.60;99.90;;;;;;5025297;28;20036;-71
2022/04/17 08:26:06;;;;;;;3.60;3.00;;;8.90;99.90;;;;;;5048852;28;20025;-71
2022/04/17 08:28:32;;;;;;;6.00;3.90;;;9.10;99.90;;;;;;5056935;28;20033;-71
2022/04/17 08:30:58;;;;;;;5.32;3.47;;;9.20;99.90;;;;;;5050837;28;20035;-71
2022/04/17 08:33:26;;;;;;;3.47;2.95;;;9.20;99.90;;;;;;5036407;28;20511;-73
2022/04/17 08:35:53;;;;;;;4.00;2.35;;;9.50;99.90;;;;;;5035626;28;20017;-73
2022/04/17 08:38:19;;;;;;;4.35;3.22;;;9.40;99.90;;;;;;5051368;28;20029;-73
2022/04/17 08:40:45;;;;;;;4.57;3.17;;;9.40;99.90;;;;;;5039893;28;20063;-73
2022/04/17 08:43:11;;;;;;;4.43;3.08;;;9.40;99.90;;;;;;5043086;28;20429;-73
2022/04/17 08:45:37;;;;;;;4.93;2.97;;;9.30;99.90;;;;;;5046626;28;20018;-73
2022/04/17 08:48:04;;;;;;;4.65;2.75;;;9.30;99.90;;;;;;5042940;28;20021;-72
2022/04/17 08:50:31;;;;;;;4.22;2.85;;;9.30;99.90;;;;;;5048061;28;20292;-73
2022/04/17 08:52:59;;;;;;;4.22;2.95;;;9.40;99.90;;;;;;5043366;28;20032;-73
2022/04/17 08:55:24;;;;;;;5.20;2.95;;;9.40;99.90;;;;;;5039298;28;20056;-73
2022/04/17 08:57:50;;;;;;;3.10;2.80;;;9.60;99.90;;;;;;5042154;28;20148;-73
2022/04/17 09:00:17;;;;;;;4.07;2.75;;;9.70;99.90;;;;;;5049114;28;20017;-73
2022/04/17 09:02:44;;;;;;;4.38;2.70;;;9.80;99.90;;;;;;5041303;28;20106;-73
2022/04/17 09:05:11;;;;;;;2.72;2.38;;;9.70;99.90;;;;;;5046677;28;20157;-73
2022/04/17 09:07:40;;;;;;;3.20;2.75;;;10.00;99.90;;;;;;5044018;28;20356;-73
2022/04/17 09:10:07;;;;;;;2.90;2.28;;;10.10;99.90;;;;;;5065642;28;20104;-72
2022/04/17 09:12:33;;;;;;;2.97;2.47;;;10.10;99.90;;;;;;5021813;28;20514;-73
2022/04/17 09:14:58;;;;;;;3.92;2.40;;;10.00;99.90;;;;;;5045104;28;20033;-73
2022/04/17 09:17:33;;;;;;;3.78;2.67;;;10.00;99.90;;;;;;5026963;28;20036;-73
2022/04/17 09:19:59;;;;;;;5.25;2.30;;;10.00;99.90;;;;;;5046123;28;20021;-72
2022/04/17 09:22:26;;;;;;;2.50;2.15;;;10.20;99.90;;;;;;5045683;28;20067;-73
2022/04/17 09:24:51;;;;;;;3.90;2.25;;;10.40;99.90;;;;;;5039222;28;20017;-73
2022/04/17 09:27:17;;;;;;;3.53;2.53;;;10.20;99.40;;;;;;5021674;28;20594;-73
2022/04/17 09:29:42;;;;;;;3.38;2.40;;;10.20;99.90;;;;;;5046003;28;20087;-72
2022/04/17 09:32:10;;;;;;;3.75;2.20;;;10.20;98.90;;;;;;5045941;28;20494;-73
2022/04/17 09:34:52;;;;;;;4.55;2.30;;;10.40;99.50;;;;;;5047403;22;20041;-72
2022/04/17 09:37:22;;;;;;;3.50;2.25;;;10.60;99.50;;;;;;5017051;28;20040;-72
2022/04/17 09:39:49;;;;;;;2.40;1.75;;;10.70;98.10;;;;;;5012647;28;20076;-72
2022/04/17 09:42:22;;;;;;;4.15;1.90;;;10.90;95.70;;;;;;5012450;28;20096;-72
2022/04/17 09:44:54;;;;;;;4.03;1.73;;;11.10;93.80;;;;;;5012602;28;20030;-72
2022/04/17 09:47:21;;;;;;;3.75;1.90;;;11.10;94.30;;;;;;5015500;28;20025;-73
2022/04/17 09:49:52;;;;;;;3.38;1.88;;;11.30;94.30;;;;;;5020789;28;20080;-73
2022/04/17 09:52:18;;;;;;;4.13;2.03;;;11.30;94.50;;;;;;5025727;28;20030;-73
2022/04/17 09:54:44;;;;;;;4.47;1.90;;;10.90;93.40;;;;;;5024083;28;20367;-73
2022/04/17 09:57:26;;;;;;;3.10;1.70;;;10.80;91.30;;;;;;5026834;28;20655;-72
2022/04/17 09:59:52;;;;;;;3.63;2.15;;;10.90;95.00;;;;;;5015234;28;20025;-72
2022/04/17 10:02:19;;;;;;;3.65;2.10;;;11.10;93.40;;;;;;5031527;28;20037;-72
2022/04/17 10:04:46;;;;;;;2.25;1.98;;;11.00;91.60;;;;;;5017723;28;20088;-72
2022/04/17 10:07:14;;;;;;;2.40;1.88;;;11.40;93.70;;;;;;5012399;28;20034;-72
2022/04/17 10:09:41;;;;;;;2.65;1.88;;;11.50;92.30;;;;;;5025535;28;20487;-72
2022/04/17 10:12:07;;;;;;;4.63;1.60;;;11.50;92.40;;;;;;5020756;28;20083;-73
2022/04/17 10:14:36;;;;;;;2.67;1.65;;;12.00;92.00;;;;;;5023067;28;20021;-74
2022/04/17 10:17:05;;;;;;;3.53;1.50;;;12.30;88.90;;;;;;5029205;28;20072;-72
2022/04/17 10:19:32;;;;;;;2.35;1.60;;;12.30;87.80;;;;;;5031032;28;20039;-73
2022/04/17 10:22:01;;;;;;;4.53;1.58;;;12.50;89.20;;;;;;5029066;28;20108;-73
2022/04/17 10:24:26;;;;;;;2.22;1.90;;;12.70;88.20;;;;;;5026484;28;20037;-73
2022/04/17 10:26:53;;;;;;;5.13;1.85;;;12.80;89.70;;;;;;5036491;28;20021;-72
2022/04/17 10:29:53;;;;;;;3.58;2.05;;;12.30;88.20;;;;;;5036597;28;20026;-72
2022/04/17 10:32:38;;;;;;;3.30;1.80;;;12.10;89.00;;;;;;5009692;28;20053;-73
2022/04/17 10:35:26;;;;;;;2.47;1.60;;;12.30;89.50;;;;;;5040668;28;20119;-73
2022/04/17 10:38:29;;;;;;;2.05;1.77;;;12.30;83.20;;;;;;5018231;28;20044;-73
2022/04/17 10:41:15;;;;;;;2.40;2.05;;;12.50;86.00;;;;;;5031397;28;20029;-71
2022/04/17 10:43:46;;;;;;;3.35;2.20;;;12.40;86.70;;;;;;5029977;28;20414;-72
2022/04/17 10:46:17;;;;;;;3.17;2.00;;;12.40;86.80;;;;;;5022264;28;20433;-72
2022/04/17 10:48:43;;;;;;;3.08;2.28;;;12.70;87.20;;;;;;5046538;28;20080;-72
2022/04/17 10:51:30;;;;;;;3.65;2.13;;;13.00;88.80;;;;;;5020881;28;20029;-73
2022/04/17 10:53:59;;;;;;;;;;;12.90;88.30;;;;;;5017411;28;20021;-73
2022/04/17 10:56:24;;;;;;;2.65;1.95;;;12.90;88.60;;;;;;5031351;28;19905;-69
2022/04/17 10:58:56;;;;;;;2.22;1.90;;;12.80;84.70;;;;;;5014014;28;20045;-72
2022/04/17 11:01:43;;;;;;;3.05;2.10;;;12.50;84.70;;;;;;5015430;28;20021;-73
2022/04/17 11:04:21;;;;;;;2.55;2.10;;;13.10;87.90;;;;;;5026166;28;20025;-73
2022/04/17 11:07:12;;;;;;;5.13;2.13;;;13.70;86.90;;;;;;5034482;28;20022;-73
2022/04/17 11:09:43;;;;;;;3.58;2.55;;;13.50;86.00;;;;;;5009367;28;20109;-72
2022/04/17 11:12:23;;;;;;;2.20;1.95;;;13.00;84.20;;;;;;5012889;28;20165;-73
2022/04/17 11:15:17;;;;;;;3.72;2.13;;;13.00;86.80;;;;;;5015296;28;20052;-73
2022/04/17 11:17:43;;;;;;;4.32;2.17;;;13.00;86.20;;;;;;5029362;28;20037;-73
2022/04/17 11:20:09;;;;;;;2.63;1.90;;;12.90;84.90;;;;;;5035058;28;20033;-73
2022/04/17 11:22:36;;;;;;;4.07;2.00;;;12.60;84.10;;;;;;5067273;28;20389;-73
2022/04/17 11:25:10;;;;;;;4.53;2.00;;;12.90;87.20;;;;;;5035035;28;20022;-74
2022/04/17 11:27:51;;;;;;;3.35;2.33;;;13.30;84.30;;;;;;5034992;28;20036;-73
2022/04/17 11:30:17;;;;;;;2.60;1.90;;;13.30;83.50;;;;;;5034794;28;20498;-73
2022/04/17 11:32:42;;;;;;;2.70;1.88;;;12.80;83.30;;;;;;5034881;28;20032;-73
2022/04/17 11:35:10;;;;;;;2.17;1.83;;;13.20;84.20;;;;;;5024004;28;20038;-73
2022/04/17 11:37:36;;;;;;;2.22;1.90;;;12.90;84.80;;;;;;5014921;28;20034;-73
2022/04/17 11:40:13;;;;;;;3.42;2.50;;;13.10;84.00;;;;;;5015054;28;20033;-73
2022/04/17 11:42:46;;;;;;;3.65;2.40;;;13.10;83.70;;;;;;5014800;28;20376;-72
2022/04/17 11:45:14;;;;;;;3.67;1.80;;;13.10;85.10;;;;;;5015090;28;20502;-72
2022/04/17 11:47:42;;;;;;;2.17;1.65;;;13.40;80.30;;;;;;5021582;28;20029;-73
2022/04/17 11:50:09;;;;;;;3.33;1.80;;;12.90;76.90;;;;;;5033503;28;20033;-73
2022/04/17 11:52:35;;;;;;;2.78;1.80;;;13.30;77.40;;;;;;5014524;28;20030;-73
2022/04/17 11:55:01;;;;;;;3.50;1.50;;;13.40;74.40;;;;;;5014559;28;20096;-73
2022/04/17 11:57:27;;;;;;;2.05;1.50;;;13.30;74.40;;;;;;5020319;28;20029;-73
2022/04/17 11:59:54;;;;;;;3.08;1.48;;;13.20;76.90;;;;;;5014556;28;20025;-72
2022/04/17 12:02:21;;;;;;;2.92;1.50;;;13.60;77.20;;;;;;5014402;28;20532;-74
2022/04/17 12:04:49;;;;;;;3.42;1.80;;;14.20;79.10;;;;;;5014407;28;20065;-73
2022/04/17 12:07:20;;;;;;;2.10;1.60;;;14.20;75.70;;;;;;5013144;28;20026;-73
2022/04/17 12:09:46;;;;;;;2.20;1.67;;;14.50;70.70;;;;;;5014019;28;20383;-73
2022/04/17 12:12:13;;;;;;;2.22;1.55;;;14.00;71.40;;;;;;5014184;28;20476;-73
2022/04/17 12:14:38;;;;;;;2.00;1.50;;;14.00;67.50;;;;;;5014257;28;20034;-73
2022/04/17 12:17:05;;;;;;;3.28;1.67;;;13.70;68.70;;;;;;5014291;28;20036;-73
2022/04/17 12:19:30;;;;;;;2.70;1.70;;;13.80;69.40;;;;;;5014148;28;20152;-74
2022/04/17 12:21:56;;;;;;;3.05;1.55;;;14.40;72.00;;;;;;5013926;28;20484;-75
2022/04/17 12:24:27;;;;;;;1.70;1.50;;;14.50;71.70;;;;;;5030251;28;20044;-72
2022/04/17 12:26:54;;;;;;;2.75;1.50;;;14.20;69.50;;;;;;5033938;28;20116;-72
2022/04/17 12:29:20;;;;;;;2.28;2.08;;;14.20;69.70;;;;;;5033767;28;20029;-72
2022/04/17 12:31:46;;;;;;;2.80;2.00;;;14.20;71.60;;;;;;5033472;28;20100;-73
2022/04/17 12:34:19;;;;;;;2.13;1.88;;;14.40;70.30;;;;;;5033609;28;20112;-72
2022/04/17 12:36:45;;;;;;;2.00;1.75;;;14.60;70.10;;;;;;5033633;28;20029;-71
2022/04/17 12:39:11;;;;;;;3.80;1.80;;;14.90;67.10;;;;;;5033661;28;20541;-74
2022/04/17 12:41:57;;;;;;;1.90;1.40;;;15.30;69.90;;;;;;5065327;28;20043;-74
2022/04/17 12:44:35;;;;;;;2.90;1.80;;;15.30;71.30;;;;;;5033566;28;20025;-72
2022/04/17 12:47:11;;;;;;;2.20;1.85;;;15.80;68.10;;;;;;5033309;28;20029;-72
2022/04/17 12:49:37;;;;;;;2.83;2.15;;;16.10;65.90;;;;;;5033506;28;20491;-73
2022/04/17 12:52:03;;;;;;;4.60;1.83;;;15.50;68.20;;;;;;5033159;28;20072;-74
2022/04/17 12:54:33;;;;;;;3.70;2.00;;;15.50;69.50;;;;;;5033258;28;20033;-74
2022/04/17 12:57:05;;;;;;;2.75;2.00;;;15.30;68.40;;;;;;5029288;28;20026;-73
2022/04/17 12:59:41;;;;;;;2.47;1.80;;;15.30;69.00;;;;;;5013330;28;20565;-72
2022/04/17 13:02:10;;;;;;;;;;;16.40;69.80;;;;;;5013661;28;20026;-73
2022/04/17 13:04:44;;;;;;;2.00;1.80;;;17.70;67.00;;;;;;5013199;28;19913;-73
2022/04/17 13:07:13;;;;;;;2.70;2.17;;;18.00;63.60;;;;;;5013344;28;20428;-73
2022/04/17 13:09:55;;;;;;;3.10;2.15;;;19.10;65.60;;;;;;5011986;28;20729;-73
2022/04/17 13:12:36;;;;;;;3.03;1.77;;;19.50;62.30;;;;;;5013104;28;20506;-72
2022/04/17 13:15:07;;;;;;;2.58;1.90;;;17.70;59.00;;;;;;5013150;28;20028;-73
2022/04/17 13:17:50;;;;;;;3.00;1.80;;;17.20;59.80;;;;;;5013097;28;20030;-73